sensor_id;sensor_type;location;lat;lon;timestamp;P1;durP1;ratioP1;P2;durP2;ratioP2
79412;SDS011;68863;49.528;11.010;2023-08-31T00:00:28;5.22;;;1.67;;
79412;SDS011;68863;49.528;11.010;2023-08-31T00:01:28;4.28;;;1.73;;
79412;SDS011;68863;49.528;11.010;2023-08-31T00:02:29;3.78;;;1.23;;
79412;SDS011;68863;49.528;11.010;2023-08-31T00:03:29;4.65;;;1.15;;
79412;SDS011;68863;49.528;11.010;2023-08-31T00:04:30;2.85;;;0.95;;
79412;SDS011;68863;49.528;11.010;2023-08-31T00:05:31;3.25;;;1.10;;
79412;SDS011;68863;49.528;11.010;2023-08-31T00:06:31;3.70;;;1.43;;
79412;SDS011;68863;49.528;11.010;2023-08-31T00:07:31;3.60;;;1.40;;
79412;SDS011;68863;49.528;11.010;2023-08-31T00:08:32;3.92;;;1.40;;
79412;SDS011;68863;49.528;11.010;2023-08-31T00:09:32;4.20;;;1.45;;
79412;SDS011;68863;49.528;11.010;2023-08-31T00:10:33;4.68;;;1.27;;
79412;SDS011;68863;49.528;11.010;2023-08-31T00:11:35;4.63;;;1.60;;
79412;SDS011;68863;49.528;11.010;2023-08-31T00:12:36;6.97;;;1.25;;
79412;SDS011;68863;49.528;11.010;2023-08-31T00:13:36;4.03;;;1.65;;
79412;SDS011;68863;49.528;11.010;2023-08-31T00:14:38;5.95;;;1.42;;
79412;SDS011;68863;49.528;11.010;2023-08-31T00:15:39;4.40;;;1.38;;
79412;SDS011;68863;49.528;11.010;2023-08-31T00:16:41;4.20;;;1.50;;
79412;SDS011;68863;49.528;11.010;2023-08-31T00:17:41;4.15;;;1.25;;
79412;SDS011;68863;49.528;11.010;2023-08-31T00:18:42;4.03;;;1.40;;
79412;SDS011;68863;49.528;11.010;2023-08-31T00:19:45;4.82;;;1.60;;
79412;SDS011;68863;49.528;11.010;2023-08-31T00:20:45;5.20;;;1.48;;
79412;SDS011;68863;49.528;11.010;2023-08-31T00:21:45;4.85;;;1.70;;
79412;SDS011;68863;49.528;11.010;2023-08-31T00:22:46;5.45;;;1.60;;
79412;SDS011;68863;49.528;11.010;2023-08-31T00:23:46;4.28;;;1.52;;
79412;SDS011;68863;49.528;11.010;2023-08-31T00:24:46;4.78;;;1.30;;
79412;SDS011;68863;49.528;11.010;2023-08-31T00:25:47;3.58;;;1.30;;
79412;SDS011;68863;49.528;11.010;2023-08-31T00:26:52;4.55;;;1.90;;
79412;SDS011;68863;49.528;11.010;2023-08-31T00:27:53;4.10;;;1.50;;
79412;SDS011;68863;49.528;11.010;2023-08-31T00:28:53;3.95;;;1.67;;
79412;SDS011;68863;49.528;11.010;2023-08-31T00:29:54;4.70;;;1.63;;
79412;SDS011;68863;49.528;11.010;2023-08-31T00:30:55;4.93;;;1.70;;
79412;SDS011;68863;49.528;11.010;2023-08-31T00:31:56;5.22;;;1.60;;
79412;SDS011;68863;49.528;11.010;2023-08-31T00:32:56;4.75;;;1.50;;
79412;SDS011;68863;49.528;11.010;2023-08-31T00:33:59;4.75;;;1.63;;
79412;SDS011;68863;49.528;11.010;2023-08-31T00:35:04;3.83;;;1.48;;
79412;SDS011;68863;49.528;11.010;2023-08-31T00:36:05;3.72;;;1.27;;
79412;SDS011;68863;49.528;11.010;2023-08-31T00:37:05;4.30;;;1.52;;
79412;SDS011;68863;49.528;11.010;2023-08-31T00:38:06;6.20;;;1.45;;
79412;SDS011;68863;49.528;11.010;2023-08-31T00:39:06;4.90;;;1.80;;
79412;SDS011;68863;49.528;11.010;2023-08-31T00:40:08;4.63;;;1.70;;
79412;SDS011;68863;49.528;11.010;2023-08-31T00:41:11;3.72;;;1.13;;
79412;SDS011;68863;49.528;11.010;2023-08-31T00:42:12;5.10;;;1.42;;
79412;SDS011;68863;49.528;11.010;2023-08-31T00:43:14;4.28;;;1.52;;
79412;SDS011;68863;49.528;11.010;2023-08-31T00:44:17;4.93;;;1.85;;
79412;SDS011;68863;49.528;11.010;2023-08-31T00:45:18;4.55;;;1.27;;
79412;SDS011;68863;49.528;11.010;2023-08-31T00:46:19;4.55;;;1.33;;
79412;SDS011;68863;49.528;11.010;2023-08-31T00:47:20;3.55;;;1.17;;
79412;SDS011;68863;49.528;11.010;2023-08-31T00:48:20;4.20;;;1.60;;
79412;SDS011;68863;49.528;11.010;2023-08-31T00:49:20;4.53;;;1.63;;
79412;SDS011;68863;49.528;11.010;2023-08-31T00:50:21;4.07;;;1.27;;
79412;SDS011;68863;49.528;11.010;2023-08-31T00:51:21;4.15;;;1.33;;
79412;SDS011;68863;49.528;11.010;2023-08-31T00:52:21;6.32;;;1.40;;
79412;SDS011;68863;49.528;11.010;2023-08-31T00:53:22;4.20;;;1.23;;
79412;SDS011;68863;49.528;11.010;2023-08-31T00:54:23;4.97;;;1.80;;
79412;SDS011;68863;49.528;11.010;2023-08-31T00:55:23;5.90;;;1.40;;
79412;SDS011;68863;49.528;11.010;2023-08-31T00:56:24;4.18;;;1.40;;
79412;SDS011;68863;49.528;11.010;2023-08-31T00:57:29;4.15;;;1.42;;
79412;SDS011;68863;49.528;11.010;2023-08-31T00:58:29;3.78;;;1.75;;
79412;SDS011;68863;49.528;11.010;2023-08-31T00:59:30;5.32;;;1.35;;
79412;SDS011;68863;49.528;11.010;2023-08-31T01:00:40;4.38;;;1.38;;
79412;SDS011;68863;49.528;11.010;2023-08-31T01:01:51;3.88;;;1.13;;
79412;SDS011;68863;49.528;11.010;2023-08-31T01:03:05;3.35;;;1.20;;
79412;SDS011;68863;49.528;11.010;2023-08-31T01:04:21;4.72;;;1.40;;
79412;SDS011;68863;49.528;11.010;2023-08-31T01:07:58;4.32;;;1.33;;
79412;SDS011;68863;49.528;11.010;2023-08-31T01:12:15;3.33;;;1.20;;
79412;SDS011;68863;49.528;11.010;2023-08-31T01:13:21;4.32;;;1.23;;
79412;SDS011;68863;49.528;11.010;2023-08-31T01:14:25;4.28;;;1.20;;
79412;SDS011;68863;49.528;11.010;2023-08-31T01:15:31;4.90;;;1.55;;
79412;SDS011;68863;49.528;11.010;2023-08-31T01:16:32;4.22;;;1.25;;
79412;SDS011;68863;49.528;11.010;2023-08-31T01:17:37;3.78;;;1.20;;
79412;SDS011;68863;49.528;11.010;2023-08-31T01:18:42;5.07;;;1.77;;
79412;SDS011;68863;49.528;11.010;2023-08-31T01:19:49;3.47;;;1.25;;
79412;SDS011;68863;49.528;11.010;2023-08-31T01:21:02;4.20;;;1.33;;
79412;SDS011;68863;49.528;11.010;2023-08-31T01:22:16;3.97;;;1.25;;
79412;SDS011;68863;49.528;11.010;2023-08-31T01:23:27;3.97;;;1.30;;
79412;SDS011;68863;49.528;11.010;2023-08-31T01:24:33;4.32;;;1.55;;
79412;SDS011;68863;49.528;11.010;2023-08-31T01:25:35;4.13;;;1.75;;
79412;SDS011;68863;49.528;11.010;2023-08-31T01:26:36;3.78;;;0.98;;
79412;SDS011;68863;49.528;11.010;2023-08-31T01:27:37;4.28;;;1.33;;
79412;SDS011;68863;49.528;11.010;2023-08-31T01:28:38;6.03;;;1.77;;
79412;SDS011;68863;49.528;11.010;2023-08-31T01:29:39;3.88;;;1.45;;
79412;SDS011;68863;49.528;11.010;2023-08-31T01:30:39;5.20;;;1.20;;
79412;SDS011;68863;49.528;11.010;2023-08-31T01:31:43;3.35;;;1.33;;
79412;SDS011;68863;49.528;11.010;2023-08-31T01:32:45;3.85;;;1.30;;
79412;SDS011;68863;49.528;11.010;2023-08-31T01:33:45;5.05;;;1.30;;
79412;SDS011;68863;49.528;11.010;2023-08-31T01:34:45;4.47;;;1.20;;
79412;SDS011;68863;49.528;11.010;2023-08-31T01:35:46;3.67;;;1.33;;
79412;SDS011;68863;49.528;11.010;2023-08-31T01:36:56;4.00;;;1.45;;
79412;SDS011;68863;49.528;11.010;2023-08-31T01:38:00;4.72;;;1.40;;
79412;SDS011;68863;49.528;11.010;2023-08-31T01:41:34;4.03;;;1.17;;
79412;SDS011;68863;49.528;11.010;2023-08-31T01:42:35;4.97;;;1.35;;
79412;SDS011;68863;49.528;11.010;2023-08-31T01:43:37;5.30;;;1.33;;
79412;SDS011;68863;49.528;11.010;2023-08-31T01:44:40;3.95;;;1.60;;
79412;SDS011;68863;49.528;11.010;2023-08-31T01:45:41;3.70;;;1.27;;
79412;SDS011;68863;49.528;11.010;2023-08-31T01:46:45;4.07;;;1.55;;
79412;SDS011;68863;49.528;11.010;2023-08-31T01:47:46;4.45;;;1.30;;
79412;SDS011;68863;49.528;11.010;2023-08-31T01:48:46;3.47;;;1.40;;
79412;SDS011;68863;49.528;11.010;2023-08-31T01:49:47;3.38;;;1.00;;
79412;SDS011;68863;49.528;11.010;2023-08-31T01:50:47;3.67;;;1.20;;
79412;SDS011;68863;49.528;11.010;2023-08-31T01:51:47;4.53;;;1.20;;
79412;SDS011;68863;49.528;11.010;2023-08-31T01:52:48;3.75;;;1.17;;
79412;SDS011;68863;49.528;11.010;2023-08-31T01:53:48;4.93;;;1.67;;
79412;SDS011;68863;49.528;11.010;2023-08-31T01:54:48;4.38;;;1.20;;
79412;SDS011;68863;49.528;11.010;2023-08-31T01:55:49;5.50;;;2.35;;
79412;SDS011;68863;49.528;11.010;2023-08-31T01:56:49;3.65;;;1.27;;
79412;SDS011;68863;49.528;11.010;2023-08-31T01:57:49;3.25;;;1.40;;
79412;SDS011;68863;49.528;11.010;2023-08-31T01:58:50;4.10;;;1.25;;
79412;SDS011;68863;49.528;11.010;2023-08-31T01:59:50;4.22;;;1.38;;
79412;SDS011;68863;49.528;11.010;2023-08-31T02:00:51;5.13;;;1.60;;
79412;SDS011;68863;49.528;11.010;2023-08-31T02:01:51;3.22;;;1.13;;
79412;SDS011;68863;49.528;11.010;2023-08-31T02:02:51;3.53;;;1.00;;
79412;SDS011;68863;49.528;11.010;2023-08-31T02:03:52;4.22;;;1.35;;
79412;SDS011;68863;49.528;11.010;2023-08-31T02:04:52;4.63;;;1.70;;
79412;SDS011;68863;49.528;11.010;2023-08-31T02:05:52;4.47;;;1.10;;
79412;SDS011;68863;49.528;11.010;2023-08-31T02:06:53;4.25;;;1.65;;
79412;SDS011;68863;49.528;11.010;2023-08-31T02:07:53;3.67;;;1.27;;
79412;SDS011;68863;49.528;11.010;2023-08-31T02:08:53;3.55;;;1.20;;
79412;SDS011;68863;49.528;11.010;2023-08-31T02:09:53;3.77;;;1.20;;
79412;SDS011;68863;49.528;11.010;2023-08-31T02:10:54;3.05;;;0.88;;
79412;SDS011;68863;49.528;11.010;2023-08-31T02:11:54;4.50;;;1.13;;
79412;SDS011;68863;49.528;11.010;2023-08-31T02:12:54;3.23;;;0.93;;
79412;SDS011;68863;49.528;11.010;2023-08-31T02:13:55;3.17;;;1.23;;
79412;SDS011;68863;49.528;11.010;2023-08-31T02:14:55;3.80;;;1.30;;
79412;SDS011;68863;49.528;11.010;2023-08-31T02:15:55;3.00;;;1.05;;
79412;SDS011;68863;49.528;11.010;2023-08-31T02:16:55;3.15;;;0.85;;
79412;SDS011;68863;49.528;11.010;2023-08-31T02:17:56;3.50;;;1.13;;
79412;SDS011;68863;49.528;11.010;2023-08-31T02:18:56;3.95;;;1.10;;
79412;SDS011;68863;49.528;11.010;2023-08-31T02:19:56;3.78;;;0.95;;
79412;SDS011;68863;49.528;11.010;2023-08-31T02:20:57;4.18;;;1.05;;
79412;SDS011;68863;49.528;11.010;2023-08-31T02:21:58;4.97;;;1.55;;
79412;SDS011;68863;49.528;11.010;2023-08-31T02:22:58;3.77;;;1.20;;
79412;SDS011;68863;49.528;11.010;2023-08-31T02:23:58;4.87;;;1.30;;
79412;SDS011;68863;49.528;11.010;2023-08-31T02:24:58;3.80;;;1.35;;
79412;SDS011;68863;49.528;11.010;2023-08-31T02:25:59;4.63;;;1.10;;
79412;SDS011;68863;49.528;11.010;2023-08-31T02:26:59;3.90;;;1.17;;
79412;SDS011;68863;49.528;11.010;2023-08-31T02:27:59;3.80;;;1.23;;
79412;SDS011;68863;49.528;11.010;2023-08-31T02:28:59;4.60;;;1.10;;
79412;SDS011;68863;49.528;11.010;2023-08-31T02:30:00;3.73;;;1.00;;
79412;SDS011;68863;49.528;11.010;2023-08-31T02:31:01;5.60;;;1.33;;
79412;SDS011;68863;49.528;11.010;2023-08-31T02:32:05;3.38;;;1.00;;
79412;SDS011;68863;49.528;11.010;2023-08-31T02:33:06;3.83;;;1.02;;
79412;SDS011;68863;49.528;11.010;2023-08-31T02:34:06;3.55;;;1.38;;
79412;SDS011;68863;49.528;11.010;2023-08-31T02:35:06;4.75;;;1.02;;
79412;SDS011;68863;49.528;11.010;2023-08-31T02:36:07;5.07;;;1.27;;
79412;SDS011;68863;49.528;11.010;2023-08-31T02:37:07;4.13;;;1.20;;
79412;SDS011;68863;49.528;11.010;2023-08-31T02:38:07;4.30;;;1.20;;
79412;SDS011;68863;49.528;11.010;2023-08-31T02:39:07;4.17;;;1.10;;
79412;SDS011;68863;49.528;11.010;2023-08-31T02:40:08;4.43;;;1.05;;
79412;SDS011;68863;49.528;11.010;2023-08-31T02:41:09;4.43;;;1.50;;
79412;SDS011;68863;49.528;11.010;2023-08-31T02:42:09;3.25;;;1.00;;
79412;SDS011;68863;49.528;11.010;2023-08-31T02:43:09;4.15;;;1.42;;
79412;SDS011;68863;49.528;11.010;2023-08-31T02:44:10;3.45;;;1.23;;
79412;SDS011;68863;49.528;11.010;2023-08-31T02:45:11;3.85;;;1.15;;
79412;SDS011;68863;49.528;11.010;2023-08-31T02:46:11;5.05;;;1.30;;
79412;SDS011;68863;49.528;11.010;2023-08-31T02:47:12;5.40;;;1.00;;
79412;SDS011;68863;49.528;11.010;2023-08-31T02:48:13;3.88;;;1.33;;
79412;SDS011;68863;49.528;11.010;2023-08-31T02:49:13;4.45;;;1.38;;
79412;SDS011;68863;49.528;11.010;2023-08-31T02:50:13;3.60;;;1.73;;
79412;SDS011;68863;49.528;11.010;2023-08-31T02:51:14;4.40;;;1.13;;
79412;SDS011;68863;49.528;11.010;2023-08-31T02:52:14;5.35;;;1.35;;
79412;SDS011;68863;49.528;11.010;2023-08-31T02:53:14;3.92;;;1.38;;
79412;SDS011;68863;49.528;11.010;2023-08-31T02:54:15;4.57;;;1.15;;
79412;SDS011;68863;49.528;11.010;2023-08-31T02:55:15;3.80;;;1.38;;
79412;SDS011;68863;49.528;11.010;2023-08-31T02:56:16;3.67;;;1.63;;
79412;SDS011;68863;49.528;11.010;2023-08-31T02:57:16;5.13;;;1.33;;
79412;SDS011;68863;49.528;11.010;2023-08-31T02:58:19;4.22;;;1.63;;
79412;SDS011;68863;49.528;11.010;2023-08-31T02:59:19;4.97;;;1.70;;
79412;SDS011;68863;49.528;11.010;2023-08-31T03:00:20;4.07;;;1.23;;
79412;SDS011;68863;49.528;11.010;2023-08-31T03:01:23;4.28;;;1.20;;
79412;SDS011;68863;49.528;11.010;2023-08-31T03:02:24;4.43;;;1.30;;
79412;SDS011;68863;49.528;11.010;2023-08-31T03:03:24;4.43;;;1.23;;
79412;SDS011;68863;49.528;11.010;2023-08-31T03:04:24;4.57;;;1.60;;
79412;SDS011;68863;49.528;11.010;2023-08-31T03:05:25;3.70;;;1.23;;
79412;SDS011;68863;49.528;11.010;2023-08-31T03:06:26;4.65;;;1.42;;
79412;SDS011;68863;49.528;11.010;2023-08-31T03:07:26;3.67;;;1.23;;
79412;SDS011;68863;49.528;11.010;2023-08-31T03:08:26;5.53;;;1.47;;
79412;SDS011;68863;49.528;11.010;2023-08-31T03:09:26;4.50;;;1.60;;
79412;SDS011;68863;49.528;11.010;2023-08-31T03:10:27;4.53;;;1.30;;
79412;SDS011;68863;49.528;11.010;2023-08-31T03:11:27;3.90;;;1.63;;
79412;SDS011;68863;49.528;11.010;2023-08-31T03:12:27;4.13;;;1.30;;
79412;SDS011;68863;49.528;11.010;2023-08-31T03:13:27;3.97;;;1.42;;
79412;SDS011;68863;49.528;11.010;2023-08-31T03:14:28;3.72;;;1.52;;
79412;SDS011;68863;49.528;11.010;2023-08-31T03:15:28;3.80;;;1.20;;
79412;SDS011;68863;49.528;11.010;2023-08-31T03:16:28;4.00;;;1.55;;
79412;SDS011;68863;49.528;11.010;2023-08-31T03:17:29;3.47;;;1.27;;
79412;SDS011;68863;49.528;11.010;2023-08-31T03:18:29;3.97;;;1.40;;
79412;SDS011;68863;49.528;11.010;2023-08-31T03:19:29;4.13;;;1.30;;
79412;SDS011;68863;49.528;11.010;2023-08-31T03:20:30;4.43;;;1.13;;
79412;SDS011;68863;49.528;11.010;2023-08-31T03:21:30;4.68;;;1.50;;
79412;SDS011;68863;49.528;11.010;2023-08-31T03:22:30;4.88;;;1.33;;
79412;SDS011;68863;49.528;11.010;2023-08-31T03:23:30;4.75;;;1.42;;
79412;SDS011;68863;49.528;11.010;2023-08-31T03:24:31;4.47;;;1.70;;
79412;SDS011;68863;49.528;11.010;2023-08-31T03:25:34;5.10;;;1.70;;
79412;SDS011;68863;49.528;11.010;2023-08-31T03:26:35;3.72;;;1.30;;
79412;SDS011;68863;49.528;11.010;2023-08-31T03:27:36;4.30;;;1.45;;
79412;SDS011;68863;49.528;11.010;2023-08-31T03:28:36;5.00;;;1.52;;
79412;SDS011;68863;49.528;11.010;2023-08-31T03:29:38;5.18;;;1.83;;
79412;SDS011;68863;49.528;11.010;2023-08-31T03:30:40;3.85;;;1.40;;
79412;SDS011;68863;49.528;11.010;2023-08-31T03:31:40;4.90;;;1.55;;
79412;SDS011;68863;49.528;11.010;2023-08-31T03:32:40;5.53;;;1.60;;
79412;SDS011;68863;49.528;11.010;2023-08-31T03:33:42;4.78;;;1.85;;
79412;SDS011;68863;49.528;11.010;2023-08-31T03:34:42;6.82;;;1.63;;
79412;SDS011;68863;49.528;11.010;2023-08-31T03:35:42;4.67;;;1.50;;
79412;SDS011;68863;49.528;11.010;2023-08-31T03:36:43;5.20;;;1.57;;
79412;SDS011;68863;49.528;11.010;2023-08-31T03:37:46;4.73;;;1.60;;
79412;SDS011;68863;49.528;11.010;2023-08-31T03:38:47;4.60;;;1.83;;
79412;SDS011;68863;49.528;11.010;2023-08-31T03:39:47;4.23;;;1.30;;
79412;SDS011;68863;49.528;11.010;2023-08-31T03:40:54;4.15;;;1.33;;
79412;SDS011;68863;49.528;11.010;2023-08-31T03:41:55;4.40;;;1.40;;
79412;SDS011;68863;49.528;11.010;2023-08-31T03:42:55;4.20;;;1.50;;
79412;SDS011;68863;49.528;11.010;2023-08-31T03:43:56;4.00;;;1.30;;
79412;SDS011;68863;49.528;11.010;2023-08-31T03:44:56;4.30;;;1.30;;
79412;SDS011;68863;49.528;11.010;2023-08-31T03:45:56;4.15;;;1.58;;
79412;SDS011;68863;49.528;11.010;2023-08-31T03:46:57;4.75;;;1.45;;
79412;SDS011;68863;49.528;11.010;2023-08-31T03:47:57;3.50;;;1.20;;
79412;SDS011;68863;49.528;11.010;2023-08-31T03:48:57;3.83;;;1.47;;
79412;SDS011;68863;49.528;11.010;2023-08-31T03:49:58;4.70;;;1.60;;
79412;SDS011;68863;49.528;11.010;2023-08-31T03:50:58;4.30;;;1.30;;
79412;SDS011;68863;49.528;11.010;2023-08-31T03:51:59;3.58;;;1.33;;
79412;SDS011;68863;49.528;11.010;2023-08-31T03:52:59;4.53;;;1.60;;
79412;SDS011;68863;49.528;11.010;2023-08-31T03:54:00;5.25;;;1.60;;
79412;SDS011;68863;49.528;11.010;2023-08-31T03:55:00;3.35;;;1.00;;
79412;SDS011;68863;49.528;11.010;2023-08-31T03:56:00;5.57;;;1.40;;
79412;SDS011;68863;49.528;11.010;2023-08-31T03:57:01;4.45;;;1.10;;
79412;SDS011;68863;49.528;11.010;2023-08-31T03:58:01;4.45;;;1.25;;
79412;SDS011;68863;49.528;11.010;2023-08-31T03:59:02;4.95;;;1.42;;
79412;SDS011;68863;49.528;11.010;2023-08-31T04:00:05;4.15;;;1.48;;
79412;SDS011;68863;49.528;11.010;2023-08-31T04:01:10;3.50;;;1.23;;
79412;SDS011;68863;49.528;11.010;2023-08-31T04:02:10;4.57;;;1.52;;
79412;SDS011;68863;49.528;11.010;2023-08-31T04:03:11;4.13;;;1.33;;
79412;SDS011;68863;49.528;11.010;2023-08-31T04:04:11;4.07;;;1.33;;
79412;SDS011;68863;49.528;11.010;2023-08-31T04:05:11;4.25;;;1.58;;
79412;SDS011;68863;49.528;11.010;2023-08-31T04:09:17;4.53;;;1.73;;
79412;SDS011;68863;49.528;11.010;2023-08-31T04:10:19;6.15;;;1.83;;
79412;SDS011;68863;49.528;11.010;2023-08-31T04:11:24;5.00;;;1.77;;
79412;SDS011;68863;49.528;11.010;2023-08-31T04:12:25;4.10;;;1.35;;
79412;SDS011;68863;49.528;11.010;2023-08-31T04:13:25;4.65;;;2.13;;
79412;SDS011;68863;49.528;11.010;2023-08-31T04:14:28;6.75;;;1.80;;
79412;SDS011;68863;49.528;11.010;2023-08-31T04:16:23;5.43;;;1.73;;
79412;SDS011;68863;49.528;11.010;2023-08-31T04:19:25;4.43;;;1.52;;
79412;SDS011;68863;49.528;11.010;2023-08-31T04:20:56;4.40;;;1.42;;
79412;SDS011;68863;49.528;11.010;2023-08-31T04:22:01;6.00;;;1.75;;
79412;SDS011;68863;49.528;11.010;2023-08-31T04:23:02;4.90;;;1.88;;
79412;SDS011;68863;49.528;11.010;2023-08-31T04:24:04;5.00;;;1.85;;
79412;SDS011;68863;49.528;11.010;2023-08-31T04:32:47;4.53;;;1.75;;
79412;SDS011;68863;49.528;11.010;2023-08-31T04:36:56;5.78;;;1.58;;
79412;SDS011;68863;49.528;11.010;2023-08-31T04:38:39;4.57;;;1.52;;
79412;SDS011;68863;49.528;11.010;2023-08-31T04:40:41;4.47;;;1.52;;
79412;SDS011;68863;49.528;11.010;2023-08-31T04:42:26;4.78;;;1.67;;
79412;SDS011;68863;49.528;11.010;2023-08-31T04:44:26;5.97;;;1.50;;
79412;SDS011;68863;49.528;11.010;2023-08-31T04:45:26;4.25;;;1.63;;
79412;SDS011;68863;49.528;11.010;2023-08-31T04:46:32;4.13;;;1.40;;
79412;SDS011;68863;49.528;11.010;2023-08-31T04:47:34;4.93;;;1.80;;
79412;SDS011;68863;49.528;11.010;2023-08-31T04:48:42;6.28;;;1.67;;
79412;SDS011;68863;49.528;11.010;2023-08-31T04:49:51;3.88;;;1.52;;
79412;SDS011;68863;49.528;11.010;2023-08-31T04:51:33;4.35;;;1.42;;
79412;SDS011;68863;49.528;11.010;2023-08-31T04:52:39;4.20;;;1.30;;
79412;SDS011;68863;49.528;11.010;2023-08-31T04:53:39;6.55;;;1.75;;
79412;SDS011;68863;49.528;11.010;2023-08-31T04:56:48;4.13;;;1.23;;
79412;SDS011;68863;49.528;11.010;2023-08-31T04:58:27;5.55;;;1.88;;
79412;SDS011;68863;49.528;11.010;2023-08-31T04:59:27;4.50;;;1.52;;
79412;SDS011;68863;49.528;11.010;2023-08-31T05:00:27;6.18;;;2.00;;
79412;SDS011;68863;49.528;11.010;2023-08-31T05:01:28;6.00;;;1.88;;
79412;SDS011;68863;49.528;11.010;2023-08-31T05:02:28;5.60;;;1.75;;
79412;SDS011;68863;49.528;11.010;2023-08-31T05:03:29;4.75;;;1.52;;
79412;SDS011;68863;49.528;11.010;2023-08-31T05:04:29;4.95;;;1.40;;
79412;SDS011;68863;49.528;11.010;2023-08-31T05:05:30;4.90;;;2.15;;
79412;SDS011;68863;49.528;11.010;2023-08-31T05:06:31;3.95;;;1.35;;
79412;SDS011;68863;49.528;11.010;2023-08-31T05:07:34;4.28;;;1.65;;
79412;SDS011;68863;49.528;11.010;2023-08-31T05:08:55;3.90;;;1.45;;
79412;SDS011;68863;49.528;11.010;2023-08-31T05:09:56;4.22;;;1.45;;
79412;SDS011;68863;49.528;11.010;2023-08-31T05:10:59;5.28;;;1.98;;
79412;SDS011;68863;49.528;11.010;2023-08-31T05:12:00;4.13;;;1.50;;
79412;SDS011;68863;49.528;11.010;2023-08-31T05:13:01;5.47;;;2.10;;
79412;SDS011;68863;49.528;11.010;2023-08-31T05:14:04;5.40;;;1.95;;
79412;SDS011;68863;49.528;11.010;2023-08-31T05:15:04;5.40;;;1.80;;
79412;SDS011;68863;49.528;11.010;2023-08-31T05:16:05;6.85;;;1.90;;
79412;SDS011;68863;49.528;11.010;2023-08-31T05:17:14;4.50;;;1.80;;
79412;SDS011;68863;49.528;11.010;2023-08-31T05:18:14;5.25;;;1.60;;
79412;SDS011;68863;49.528;11.010;2023-08-31T05:19:17;4.30;;;1.63;;
79412;SDS011;68863;49.528;11.010;2023-08-31T05:20:20;6.10;;;1.88;;
79412;SDS011;68863;49.528;11.010;2023-08-31T05:21:24;4.95;;;1.92;;
79412;SDS011;68863;49.528;11.010;2023-08-31T05:22:24;4.70;;;1.63;;
79412;SDS011;68863;49.528;11.010;2023-08-31T05:23:24;4.93;;;2.15;;
79412;SDS011;68863;49.528;11.010;2023-08-31T05:24:25;4.82;;;1.80;;
79412;SDS011;68863;49.528;11.010;2023-08-31T05:25:31;4.90;;;1.67;;
79412;SDS011;68863;49.528;11.010;2023-08-31T05:57:26;7.53;;;2.90;;
79412;SDS011;68863;49.528;11.010;2023-08-31T06:20:54;6.57;;;3.25;;
79412;SDS011;68863;49.528;11.010;2023-08-31T06:28:55;7.25;;;3.08;;
79412;SDS011;68863;49.528;11.010;2023-08-31T06:32:29;7.15;;;2.92;;
79412;SDS011;68863;49.528;11.010;2023-08-31T06:33:30;7.82;;;3.90;;
79412;SDS011;68863;49.528;11.010;2023-08-31T06:34:30;7.43;;;3.30;;
79412;SDS011;68863;49.528;11.010;2023-08-31T06:35:32;8.02;;;3.60;;
79412;SDS011;68863;49.528;11.010;2023-08-31T06:40:13;8.23;;;3.75;;
79412;SDS011;68863;49.528;11.010;2023-08-31T06:47:13;8.85;;;3.70;;
79412;SDS011;68863;49.528;11.010;2023-08-31T06:49:21;7.38;;;3.30;;
79412;SDS011;68863;49.528;11.010;2023-08-31T06:50:54;7.65;;;3.40;;
79412;SDS011;68863;49.528;11.010;2023-08-31T06:51:56;7.32;;;4.22;;
79412;SDS011;68863;49.528;11.010;2023-08-31T07:10:24;8.23;;;4.55;;
79412;SDS011;68863;49.528;11.010;2023-08-31T07:22:39;8.98;;;3.40;;
79412;SDS011;68863;49.528;11.010;2023-08-31T08:07:52;4.95;;;1.75;;
79412;SDS011;68863;49.528;11.010;2023-08-31T08:08:53;4.88;;;1.65;;
79412;SDS011;68863;49.528;11.010;2023-08-31T08:10:03;6.07;;;2.00;;
79412;SDS011;68863;49.528;11.010;2023-08-31T08:11:04;4.30;;;1.50;;
79412;SDS011;68863;49.528;11.010;2023-08-31T08:12:06;4.90;;;1.58;;
79412;SDS011;68863;49.528;11.010;2023-08-31T08:13:08;5.13;;;1.52;;
79412;SDS011;68863;49.528;11.010;2023-08-31T08:14:09;5.07;;;1.95;;
79412;SDS011;68863;49.528;11.010;2023-08-31T08:15:09;5.18;;;1.77;;
79412;SDS011;68863;49.528;11.010;2023-08-31T08:16:15;5.70;;;1.40;;
79412;SDS011;68863;49.528;11.010;2023-08-31T08:17:38;5.55;;;1.40;;
79412;SDS011;68863;49.528;11.010;2023-08-31T08:19:05;4.50;;;1.55;;
79412;SDS011;68863;49.528;11.010;2023-08-31T08:20:24;5.88;;;1.98;;
79412;SDS011;68863;49.528;11.010;2023-08-31T08:21:26;3.72;;;1.13;;
79412;SDS011;68863;49.528;11.010;2023-08-31T08:22:27;5.20;;;1.10;;
79412;SDS011;68863;49.528;11.010;2023-08-31T08:23:28;3.97;;;1.70;;
79412;SDS011;68863;49.528;11.010;2023-08-31T08:24:30;4.75;;;1.02;;
79412;SDS011;68863;49.528;11.010;2023-08-31T08:25:30;6.00;;;1.30;;
79412;SDS011;68863;49.528;11.010;2023-08-31T08:28:27;4.57;;;1.05;;
79412;SDS011;68863;49.528;11.010;2023-08-31T08:29:30;3.30;;;0.85;;
79412;SDS011;68863;49.528;11.010;2023-08-31T08:32:14;7.30;;;1.10;;
79412;SDS011;68863;49.528;11.010;2023-08-31T08:34:57;3.08;;;1.10;;
79412;SDS011;68863;49.528;11.010;2023-08-31T08:39:22;4.65;;;0.85;;
79412;SDS011;68863;49.528;11.010;2023-08-31T08:40:31;3.63;;;0.75;;
79412;SDS011;68863;49.528;11.010;2023-08-31T08:41:49;5.55;;;1.05;;
79412;SDS011;68863;49.528;11.010;2023-08-31T08:45:42;5.22;;;0.90;;
79412;SDS011;68863;49.528;11.010;2023-08-31T08:46:45;4.63;;;1.00;;
79412;SDS011;68863;49.528;11.010;2023-08-31T08:47:46;3.40;;;1.02;;
79412;SDS011;68863;49.528;11.010;2023-08-31T08:48:47;3.70;;;1.10;;
79412;SDS011;68863;49.528;11.010;2023-08-31T08:49:51;4.28;;;0.88;;
79412;SDS011;68863;49.528;11.010;2023-08-31T08:51:03;3.70;;;0.90;;
79412;SDS011;68863;49.528;11.010;2023-08-31T08:52:07;3.83;;;0.90;;
79412;SDS011;68863;49.528;11.010;2023-08-31T08:53:17;5.32;;;0.93;;
79412;SDS011;68863;49.528;11.010;2023-08-31T08:54:18;3.53;;;1.00;;
79412;SDS011;68863;49.528;11.010;2023-08-31T08:55:18;6.25;;;1.20;;
79412;SDS011;68863;49.528;11.010;2023-08-31T08:56:22;4.30;;;1.17;;
79412;SDS011;68863;49.528;11.010;2023-08-31T08:57:38;4.07;;;0.90;;
79412;SDS011;68863;49.528;11.010;2023-08-31T08:59:33;4.22;;;0.90;;
79412;SDS011;68863;49.528;11.010;2023-08-31T09:00:33;6.03;;;1.13;;
79412;SDS011;68863;49.528;11.010;2023-08-31T09:24:31;3.63;;;0.50;;
79412;SDS011;68863;49.528;11.010;2023-08-31T10:40:35;4.03;;;1.20;;
79412;SDS011;68863;49.528;11.010;2023-08-31T10:42:00;5.40;;;1.67;;
79412;SDS011;68863;49.528;11.010;2023-08-31T10:43:22;3.97;;;1.67;;
79412;SDS011;68863;49.528;11.010;2023-08-31T10:44:26;4.05;;;1.10;;
79412;SDS011;68863;49.528;11.010;2023-08-31T10:45:48;5.22;;;1.40;;
79412;SDS011;68863;49.528;11.010;2023-08-31T10:47:05;5.57;;;1.25;;
79412;SDS011;68863;49.528;11.010;2023-08-31T11:57:14;4.53;;;0.57;;
79412;SDS011;68863;49.528;11.010;2023-08-31T13:25:55;3.20;;;0.60;;
79412;SDS011;68863;49.528;11.010;2023-08-31T13:27:11;2.92;;;0.70;;
79412;SDS011;68863;49.528;11.010;2023-08-31T13:28:34;5.15;;;0.77;;
79412;SDS011;68863;49.528;11.010;2023-08-31T13:30:29;3.63;;;0.85;;
79412;SDS011;68863;49.528;11.010;2023-08-31T13:32:12;2.80;;;0.60;;
79412;SDS011;68863;49.528;11.010;2023-08-31T13:33:18;3.50;;;1.00;;
79412;SDS011;68863;49.528;11.010;2023-08-31T13:41:09;4.28;;;0.80;;
79412;SDS011;68863;49.528;11.010;2023-08-31T13:42:15;4.07;;;0.75;;
79412;SDS011;68863;49.528;11.010;2023-08-31T13:43:22;3.15;;;0.45;;
79412;SDS011;68863;49.528;11.010;2023-08-31T13:44:25;2.10;;;0.60;;